createdAt,value
2022-08-16T00:00:05.023Z,25.27
2022-08-16T00:02:42.029Z,22.55
2022-08-16T00:05:09.480Z,27.90
2022-08-16T00:07:33.754Z,21.30
2022-08-16T00:10:00.669Z,27.15
2022-08-16T00:12:24.936Z,26.98
2022-08-16T00:14:50.436Z,22.77
2022-08-16T00:17:20.478Z,22.33
2022-08-16T00:19:46.195Z,20.70
2022-08-16T00:22:13.365Z,18.25
2022-08-16T00:24:38.841Z,19.98
2022-08-16T00:27:05.887Z,18.17
2022-08-16T00:29:33.244Z,19.50
2022-08-16T00:32:01.645Z,19.95
2022-08-16T00:34:45.225Z,23.02
2022-08-16T00:37:16.886Z,24.00
2022-08-16T00:39:41.285Z,26.00
2022-08-16T00:42:10.160Z,23.90
2022-08-16T00:44:36.230Z,26.20
2022-08-16T00:47:06.772Z,24.85
2022-08-16T00:49:39.747Z,29.55
2022-08-16T00:52:30.190Z,23.90
2022-08-16T00:54:52.738Z,23.75
2022-08-16T00:57:18.826Z,25.00
2022-08-16T00:59:50.718Z,21.05
2022-08-16T01:02:31.761Z,23.48
2022-08-16T01:05:10.561Z,19.83
2022-08-16T01:07:51.860Z,21.65
2022-08-16T01:10:17.363Z,19.85
2022-08-16T01:12:42.577Z,20.92
2022-08-16T01:15:08.968Z,17.92
2022-08-16T01:17:36.922Z,23.08
2022-08-16T01:20:23.947Z,17.98
2022-08-16T01:22:55.984Z,17.50
2022-08-16T01:25:34.098Z,23.60
2022-08-16T01:28:02.881Z,18.15
2022-08-16T01:30:33.544Z,17.80
2022-08-16T01:33:14.432Z,23.50
2022-08-16T01:35:47.636Z,15.82
2022-08-16T01:38:25.550Z,19.70
2022-08-16T01:40:54.216Z,23.30
2022-08-16T01:43:19.560Z,25.92
2022-08-16T01:45:46.122Z,26.48
2022-08-16T01:48:19.810Z,18.75
2022-08-16T01:51:09.690Z,22.08
2022-08-16T01:53:30.796Z,22.30
2022-08-16T01:56:06.704Z,16.88
2022-08-16T01:58:32.532Z,18.98
2022-08-16T02:00:57.572Z,16.65
2022-08-16T02:03:24.563Z,17.67
2022-08-16T02:05:51.926Z,18.58
2022-08-16T02:08:32.838Z,20.55
2022-08-16T02:10:58.918Z,18.33
2022-08-16T02:13:27.779Z,18.30
2022-08-16T02:15:56.528Z,17.63
2022-08-16T02:18:20.563Z,17.58
2022-08-16T02:20:53.452Z,19.77
2022-08-16T02:23:19.422Z,18.45
2022-08-16T02:25:52.077Z,19.48
2022-08-16T02:28:19.538Z,23.15
2022-08-16T02:30:50.483Z,21.05
2022-08-16T02:33:15.868Z,22.10
2022-08-16T02:35:54.607Z,27.08
2022-08-16T02:38:24.973Z,24.80
2022-08-16T02:40:50.231Z,21.20
2022-08-16T02:43:14.765Z,23.40
2022-08-16T02:45:39.223Z,18.70
2022-08-16T02:48:29.530Z,26.17
2022-08-16T02:51:10.507Z,19.80
2022-08-16T02:53:39.631Z,24.48
2022-08-16T02:56:05.375Z,20.85
2022-08-16T02:58:34.315Z,18.58
2022-08-16T03:00:58.740Z,18.40
2022-08-16T03:03:26.157Z,23.02
2022-08-16T03:05:52.513Z,20.50
2022-08-16T03:08:50.344Z,24.30
2022-08-16T03:11:02.195Z,19.80
2022-08-16T03:13:26.020Z,22.33
2022-08-16T03:15:50.560Z,18.63
2022-08-16T03:18:18.766Z,17.95
2022-08-16T03:21:00.808Z,15.73
2022-08-16T03:23:24.792Z,20.00
2022-08-16T03:25:49.196Z,17.15
2022-08-16T03:28:13.035Z,18.05
2022-08-16T03:30:38.153Z,22.67
2022-08-16T03:33:05.171Z,20.58
2022-08-16T03:35:42.228Z,18.80
2022-08-16T03:38:35.996Z,20.40
2022-08-16T03:41:24.524Z,19.35
2022-08-16T03:43:54.584Z,21.20
2022-08-16T03:46:47.903Z,21.48
2022-08-16T03:49:10.816Z,17.50
2022-08-16T03:51:36.489Z,18.77
2022-08-16T03:54:12.563Z,19.98
2022-08-16T03:56:37.985Z,20.88
2022-08-16T03:59:02.404Z,21.20
2022-08-16T04:01:32.900Z,26.23
2022-08-16T04:03:58.467Z,23.73
2022-08-16T04:06:24.000Z,23.90
2022-08-16T04:08:48.840Z,21.48
2022-08-16T04:11:16.293Z,19.65
2022-08-16T04:13:58.837Z,19.10
2022-08-16T04:16:27.283Z,16.40
2022-08-16T04:19:02.119Z,16.92
2022-08-16T04:21:29.817Z,19.95
2022-08-16T04:23:54.834Z,22.90
2022-08-16T04:26:21.109Z,21.23
2022-08-16T04:28:53.288Z,22.63
2022-08-16T04:31:18.880Z,20.48
2022-08-16T04:33:50.653Z,21.00
2022-08-16T04:36:20.122Z,23.23
2022-08-16T04:38:45.027Z,18.98
2022-08-16T04:41:09.952Z,17.33
2022-08-16T04:43:38.605Z,17.20
2022-08-16T04:46:33.192Z,20.52
2022-08-16T04:48:53.827Z,20.30
2022-08-16T04:51:20.360Z,18.15
2022-08-16T04:53:45.892Z,16.35
2022-08-16T04:56:11.895Z,17.52
2022-08-16T04:58:45.470Z,19.42
2022-08-16T05:01:12.119Z,19.27
2022-08-16T05:03:35.874Z,25.02
2022-08-16T05:06:09.232Z,24.40
2022-08-16T05:08:34.471Z,18.85
2022-08-16T05:11:15.632Z,24.70
2022-08-16T05:13:47.820Z,22.45
2022-08-16T05:16:22.893Z,24.45
2022-08-16T05:18:56.868Z,26.35
2022-08-16T05:21:24.361Z,21.13
2022-08-16T05:23:58.757Z,25.83
2022-08-16T05:26:30.996Z,20.88
2022-08-16T05:28:58.040Z,21.92
2022-08-16T05:31:21.930Z,21.77
2022-08-16T05:33:47.305Z,21.30
2022-08-16T05:36:20.943Z,24.50
2022-08-16T05:38:48.421Z,25.25
2022-08-16T05:41:13.855Z,23.70
2022-08-16T05:43:43.682Z,28.65
2022-08-16T05:46:30.423Z,22.45
2022-08-16T05:49:03.123Z,22.17
2022-08-16T05:51:35.320Z,21.80
2022-08-16T05:54:03.428Z,20.85
2022-08-16T05:56:27.504Z,17.90
2022-08-16T05:58:51.320Z,20.10
2022-08-16T06:01:17.823Z,21.75
2022-08-16T06:03:45.421Z,20.33
2022-08-16T06:06:31.963Z,19.58
2022-08-16T06:08:59.192Z,19.25
2022-08-16T06:11:23.231Z,19.17
2022-08-16T06:13:55.358Z,18.10
2022-08-16T06:16:31.904Z,18.77
2022-08-16T06:18:56.735Z,18.65
2022-08-16T06:21:22.609Z,17.90
2022-08-16T06:23:53.985Z,17.67
2022-08-16T06:26:18.736Z,16.67
2022-08-16T06:28:44.594Z,17.65
2022-08-16T06:31:15.121Z,17.02
2022-08-16T06:33:45.163Z,18.67
2022-08-16T06:36:14.091Z,16.08
2022-08-16T06:38:56.161Z,16.67
2022-08-16T06:41:39.734Z,15.65
2022-08-16T06:44:20.715Z,16.10
2022-08-16T06:46:50.654Z,14.93
2022-08-16T06:49:18.464Z,14.85
2022-08-16T06:51:48.028Z,16.88
2022-08-16T06:54:16.984Z,14.27
2022-08-16T06:56:42.603Z,16.77
2022-08-16T06:59:11.189Z,15.60
2022-08-16T07:01:46.250Z,15.38
2022-08-16T07:04:32.832Z,16.15
2022-08-16T07:06:59.802Z,14.80
2022-08-16T07:09:23.713Z,15.05
2022-08-16T07:11:53.701Z,16.10
2022-08-16T07:14:27.291Z,16.17
2022-08-16T07:16:58.239Z,15.90
2022-08-16T07:20:03.950Z,17.08
2022-08-16T07:22:08.445Z,15.80
2022-08-16T07:24:51.552Z,16.58
2022-08-16T07:27:15.628Z,15.90
2022-08-16T07:29:40.900Z,16.15
2022-08-16T07:32:07.251Z,16.27
2022-08-16T07:34:35.278Z,17.23
2022-08-16T07:37:01.476Z,16.90
2022-08-16T07:39:43.403Z,17.17
2022-08-16T07:42:07.934Z,15.40
2022-08-16T07:44:47.611Z,16.92
2022-08-16T07:47:14.124Z,16.10
2022-08-16T07:49:39.244Z,17.27
2022-08-16T07:52:18.872Z,17.02
2022-08-16T07:54:45.957Z,16.88
2022-08-16T07:57:13.368Z,18.48
2022-08-16T07:59:46.209Z,17.58
2022-08-16T08:02:12.664Z,17.95
2022-08-16T08:04:45.287Z,18.00
2022-08-16T08:07:12.290Z,18.63
2022-08-16T08:09:36.413Z,17.95
2022-08-16T08:12:08.015Z,18.33
2022-08-16T08:14:53.400Z,19.77
2022-08-16T08:17:17.584Z,19.27
2022-08-16T08:19:42.595Z,19.40
2022-08-16T08:22:22.028Z,18.33
2022-08-16T08:24:51.708Z,17.65
2022-08-16T08:27:22.752Z,16.08
2022-08-16T08:30:49.945Z,16.75
2022-08-16T08:32:58.045Z,16.80
2022-08-16T08:35:17.685Z,17.08
2022-08-16T08:37:55.221Z,13.32
2022-08-16T08:40:24.698Z,14.40
2022-08-16T08:42:54.441Z,13.50
2022-08-16T08:45:46.958Z,13.90
2022-08-16T08:48:09.071Z,14.85
2022-08-16T08:50:52.792Z,14.55
2022-08-16T08:53:18.439Z,14.70
2022-08-16T08:55:59.181Z,13.98
2022-08-16T08:58:23.783Z,15.70
2022-08-16T09:01:11.651Z,13.85
2022-08-16T09:03:36.209Z,15.02
2022-08-16T09:06:00.578Z,14.40
2022-08-16T09:08:27.587Z,13.70
2022-08-16T09:11:02.142Z,13.77
2022-08-16T09:13:28.541Z,14.48
2022-08-16T09:15:57.176Z,13.52
2022-08-16T09:18:26.228Z,13.60
2022-08-16T09:20:58.902Z,12.18
2022-08-16T09:23:27.131Z,13.20
2022-08-16T09:25:51.703Z,13.70
2022-08-16T09:29:13.714Z,12.75
2022-08-16T09:31:16.593Z,12.00
2022-08-16T09:33:41.993Z,12.48
2022-08-16T09:36:12.340Z,11.15
2022-08-16T09:38:52.821Z,11.02
2022-08-16T09:41:24.512Z,9.48
2022-08-16T09:43:59.704Z,10.55
2022-08-16T09:46:33.352Z,10.27
2022-08-16T09:49:12.083Z,10.40
2022-08-16T09:51:36.908Z,9.43
2022-08-16T09:54:02.801Z,9.63
2022-08-16T09:56:31.754Z,9.18
2022-08-16T09:59:03.820Z,9.85
2022-08-16T10:01:31.943Z,8.95
2022-08-16T10:04:01.874Z,8.80
2022-08-16T10:06:33.570Z,8.57
2022-08-16T10:09:05.627Z,8.00
2022-08-16T10:11:50.346Z,8.95
2022-08-16T10:14:16.021Z,8.65
2022-08-16T10:16:39.949Z,7.95
2022-08-16T10:19:06.620Z,8.50
2022-08-16T10:21:32.301Z,8.63
2022-08-16T10:23:56.181Z,7.88
2022-08-16T10:27:17.214Z,7.80
2022-08-16T10:29:06.984Z,7.15
2022-08-16T10:31:45.929Z,7.30
2022-08-16T10:34:31.416Z,6.85
2022-08-16T10:36:54.572Z,7.20
2022-08-16T10:39:18.347Z,7.85
2022-08-16T10:41:45.266Z,6.80
2022-08-16T10:44:10.315Z,6.90
2022-08-16T10:46:41.773Z,6.68
2022-08-16T10:49:05.861Z,6.40
2022-08-16T10:51:34.426Z,6.38
2022-08-16T10:54:29.608Z,6.70
2022-08-16T10:56:57.105Z,5.85
2022-08-16T10:59:39.196Z,6.20
2022-08-16T11:02:59.225Z,6.55
2022-08-16T11:05:08.618Z,6.95
2022-08-16T11:07:53.546Z,6.32
2022-08-16T11:10:20.949Z,6.50
2022-08-16T11:15:55.508Z,6.70
2022-08-16T11:18:48.409Z,6.72
2022-08-16T11:21:05.142Z,7.15
2022-08-16T11:23:30.105Z,7.00
2022-08-16T11:26:07.668Z,6.80
2022-08-16T11:31:23.712Z,6.45
2022-08-16T11:33:55.122Z,5.57
2022-08-16T11:36:27.542Z,6.45
2022-08-16T11:38:57.480Z,6.20
2022-08-16T11:41:22.080Z,6.07
2022-08-16T11:43:46.995Z,6.05
2022-08-16T11:46:44.899Z,6.47
2022-08-16T11:48:59.568Z,6.50
2022-08-16T11:51:23.342Z,6.35
2022-08-16T11:53:47.119Z,6.68
2022-08-16T11:56:10.967Z,6.40
2022-08-16T11:58:39.640Z,5.93
2022-08-16T12:01:05.699Z,6.60
2022-08-16T12:03:35.802Z,6.60
2022-08-16T12:06:03.977Z,5.90
2022-08-16T12:08:28.210Z,6.13
2022-08-16T12:10:52.672Z,5.85
2022-08-16T12:13:16.791Z,6.10
2022-08-16T12:15:41.373Z,6.65
2022-08-16T12:18:06.938Z,6.07
2022-08-16T12:20:37.884Z,6.28
2022-08-16T12:23:04.507Z,6.18
2022-08-16T12:25:31.443Z,5.70
2022-08-16T12:27:56.340Z,5.70
2022-08-16T12:30:31.188Z,5.50
2022-08-16T12:32:57.529Z,6.38
2022-08-16T12:35:24.535Z,5.82
2022-08-16T12:37:56.559Z,6.03
2022-08-16T12:40:25.535Z,5.55
2022-08-16T12:42:59.061Z,5.60
2022-08-16T12:45:24.684Z,5.72
2022-08-16T12:48:31.576Z,5.85
2022-08-16T12:50:50.335Z,6.25
2022-08-16T12:53:14.144Z,5.03
2022-08-16T12:55:43.808Z,5.70
2022-08-16T12:58:13.910Z,5.30
2022-08-16T13:00:51.517Z,5.50
2022-08-16T13:03:16.413Z,5.45
2022-08-16T13:05:47.717Z,5.43
2022-08-16T13:08:21.465Z,5.25
2022-08-16T13:10:52.607Z,5.80
2022-08-16T13:13:24.529Z,5.72
2022-08-16T13:15:55.718Z,5.50
2022-08-16T13:18:27.570Z,5.35
2022-08-16T13:20:59.392Z,5.38
2022-08-16T13:23:23.323Z,5.22
2022-08-16T13:25:51.308Z,5.03
2022-08-16T13:28:20.727Z,5.63
2022-08-16T13:30:47.635Z,5.30
2022-08-16T13:33:18.241Z,5.63
2022-08-16T13:35:56.112Z,6.13
2022-08-16T13:38:25.818Z,5.13
2022-08-16T13:40:51.666Z,5.68
2022-08-16T13:43:16.064Z,6.18
2022-08-16T13:45:44.861Z,5.25
2022-08-16T13:48:09.037Z,5.60
2022-08-16T13:50:49.311Z,5.72
2022-08-16T13:53:15.961Z,5.18
2022-08-16T13:55:40.923Z,5.38
2022-08-16T13:58:34.739Z,5.32
2022-08-16T14:00:52.723Z,5.20
2022-08-16T14:03:18.296Z,4.82
2022-08-16T14:05:43.138Z,5.68
2022-08-16T14:08:06.883Z,5.20
2022-08-16T14:10:31.764Z,5.43
2022-08-16T14:12:55.577Z,5.47
2022-08-16T14:15:22.360Z,4.88
2022-08-16T14:18:15.177Z,5.00
2022-08-16T14:20:30.752Z,5.10
2022-08-16T14:22:57.031Z,5.32
2022-08-16T14:25:22.925Z,5.30
2022-08-16T14:27:47.157Z,5.13
2022-08-16T14:30:15.449Z,6.43
2022-08-16T14:32:41.535Z,4.63
2022-08-16T14:35:09.301Z,4.60
2022-08-16T14:37:33.034Z,5.10
2022-08-16T14:39:57.099Z,5.03
2022-08-16T14:42:24.392Z,4.82
2022-08-16T14:44:49.916Z,4.65
2022-08-16T14:47:14.141Z,4.90
2022-08-16T14:49:40.798Z,4.88
2022-08-16T14:52:08.628Z,4.80
2022-08-16T14:54:32.461Z,4.75
2022-08-16T14:56:56.157Z,5.00
2022-08-16T14:59:20.576Z,5.07
2022-08-16T15:01:58.987Z,5.18
2022-08-16T15:04:40.585Z,4.43
2022-08-16T15:07:12.868Z,4.70
2022-08-16T15:09:44.398Z,4.70
2022-08-16T15:12:26.541Z,4.90
2022-08-16T15:14:56.825Z,5.13
2022-08-16T15:17:21.816Z,4.70
2022-08-16T15:19:49.449Z,4.90
2022-08-16T15:22:29.952Z,4.70
2022-08-16T15:24:58.854Z,5.20
2022-08-16T15:27:22.529Z,4.60
2022-08-16T15:29:47.257Z,4.43
2022-08-16T15:32:26.424Z,4.60
2022-08-16T15:34:50.940Z,4.15
2022-08-16T15:37:42.136Z,4.22
2022-08-16T15:40:16.483Z,4.25
2022-08-16T15:42:57.966Z,3.95
2022-08-16T15:45:37.444Z,4.93
2022-08-16T15:48:01.194Z,4.68
2022-08-16T15:50:29.255Z,4.40
2022-08-16T15:52:58.585Z,4.47
2022-08-16T15:55:34.655Z,4.85
2022-08-16T15:57:59.436Z,4.70
2022-08-16T16:00:26.836Z,4.30
2022-08-16T16:02:51.197Z,4.10
2022-08-16T16:05:17.137Z,4.50
2022-08-16T16:07:56.290Z,4.78
2022-08-16T16:10:30.044Z,4.22
2022-08-16T16:12:55.040Z,4.32
2022-08-16T16:15:22.863Z,4.60
2022-08-16T16:17:51.198Z,4.20
2022-08-16T16:20:16.457Z,4.30
2022-08-16T16:22:40.129Z,4.15
2022-08-16T16:25:04.168Z,4.22
2022-08-16T16:27:29.629Z,4.30
2022-08-16T16:30:01.914Z,4.82
2022-08-16T16:32:34.673Z,4.18
2022-08-16T16:34:58.997Z,4.38
2022-08-16T16:37:23.942Z,4.28
2022-08-16T16:39:47.740Z,4.50
2022-08-16T16:42:25.653Z,4.40
2022-08-16T16:45:00.324Z,4.32
2022-08-16T16:47:24.864Z,4.32
2022-08-16T16:49:50.611Z,4.53
2022-08-16T16:52:31.286Z,4.40
2022-08-16T16:55:00.907Z,4.10
2022-08-16T16:57:42.866Z,4.45
2022-08-16T17:00:30.351Z,8.07
2022-08-16T17:02:56.651Z,7.93
2022-08-16T17:05:20.448Z,9.18
2022-08-16T17:07:44.621Z,5.97
2022-08-16T17:10:09.792Z,4.60
2022-08-16T17:12:57.538Z,5.80
2022-08-16T17:15:19.565Z,5.25
2022-08-16T17:19:14.724Z,6.32
2022-08-16T17:20:27.630Z,5.05
2022-08-16T17:25:36.956Z,7.88
2022-08-16T17:28:02.732Z,4.22
2022-08-16T17:30:47.967Z,5.55
2022-08-16T17:33:13.215Z,4.90
2022-08-16T17:35:40.332Z,5.07
2022-08-16T17:38:06.939Z,4.90
2022-08-16T17:39:26.603Z,4.97
2022-08-16T17:40:40.987Z,4.78
2022-08-16T17:43:14.081Z,4.57
2022-08-16T17:45:37.960Z,5.00
2022-08-16T17:48:03.160Z,4.70
2022-08-16T17:50:26.940Z,5.05
2022-08-16T17:52:51.881Z,4.50
2022-08-16T17:55:24.441Z,4.90
2022-08-16T17:57:48.184Z,4.82
2022-08-16T18:00:20.262Z,4.95
2022-08-16T18:02:44.859Z,4.90
2022-08-16T18:05:13.224Z,4.88
2022-08-16T18:07:37.611Z,4.88
2022-08-16T18:10:01.700Z,4.97
2022-08-16T18:12:51.247Z,5.18
2022-08-16T18:15:16.714Z,5.35
2022-08-16T18:17:40.849Z,5.75
2022-08-16T18:20:06.824Z,5.25
2022-08-16T18:22:33.849Z,5.47
2022-08-16T18:24:57.738Z,5.35
2022-08-16T18:27:25.150Z,5.32
2022-08-16T18:29:52.067Z,5.63
2022-08-16T18:32:17.058Z,5.50
2022-08-16T18:34:48.800Z,5.93
2022-08-16T18:37:12.909Z,5.88
2022-08-16T18:39:38.720Z,5.57
2022-08-16T18:42:10.570Z,5.72
2022-08-16T18:44:38.795Z,6.07
2022-08-16T18:47:02.610Z,6.03
2022-08-16T18:49:27.399Z,6.03
2022-08-16T18:51:51.234Z,6.10
2022-08-16T18:54:19.083Z,5.90
2022-08-16T18:56:56.902Z,5.65
2022-08-16T18:59:21.797Z,5.75
2022-08-16T19:01:45.802Z,5.70
2022-08-16T19:04:55.039Z,5.80
2022-08-16T19:06:55.624Z,6.40
2022-08-16T19:09:19.338Z,5.90
2022-08-16T19:11:44.572Z,5.88
2022-08-16T19:14:08.277Z,5.68
2022-08-16T19:16:32.044Z,6.43
2022-08-16T19:18:55.770Z,6.45
2022-08-16T19:21:19.624Z,6.38
2022-08-16T19:23:44.978Z,6.35
2022-08-16T19:26:24.486Z,6.13
2022-08-16T19:28:58.460Z,6.40
2022-08-16T19:31:26.636Z,6.05
2022-08-16T19:33:54.862Z,5.85
2022-08-16T19:36:31.456Z,6.10
2022-08-16T19:38:57.625Z,6.03
2022-08-16T19:41:28.921Z,6.60
2022-08-16T19:43:54.008Z,6.03
2022-08-16T19:46:17.841Z,6.63
2022-08-16T19:48:41.609Z,6.00
2022-08-16T19:51:05.831Z,5.40
2022-08-16T19:53:29.680Z,6.18
2022-08-16T19:55:53.455Z,6.40
2022-08-16T19:58:18.080Z,6.18
2022-08-16T20:00:45.655Z,6.28
2022-08-16T20:03:14.158Z,6.20
2022-08-16T20:05:38.021Z,6.65
2022-08-16T20:08:04.874Z,6.38
2022-08-16T20:10:29.317Z,6.53
2022-08-16T20:13:02.469Z,6.80
2022-08-16T20:15:31.180Z,6.85
2022-08-16T20:17:57.116Z,6.80
2022-08-16T20:20:26.003Z,6.47
2022-08-16T20:22:53.916Z,6.63
2022-08-16T20:25:28.117Z,6.95
2022-08-16T20:27:52.581Z,7.55
2022-08-16T20:30:17.852Z,6.97
2022-08-16T20:32:43.356Z,7.10
2022-08-16T20:35:11.365Z,6.80
2022-08-16T20:37:37.216Z,7.32
2022-08-16T20:40:18.169Z,7.25
2022-08-16T20:42:44.761Z,7.82
2022-08-16T20:45:10.599Z,7.38
2022-08-16T20:47:34.384Z,7.22
2022-08-16T20:50:01.405Z,7.32
2022-08-16T20:52:27.430Z,7.60
2022-08-16T20:54:51.768Z,7.00
2022-08-16T20:57:16.748Z,7.25
2022-08-16T20:59:41.496Z,6.95
2022-08-16T21:02:05.464Z,7.82
2022-08-16T21:04:30.829Z,7.88
2022-08-16T21:06:55.503Z,7.78
2022-08-16T21:09:20.893Z,8.02
2022-08-16T21:11:44.725Z,7.72
2022-08-16T21:14:10.897Z,7.57
2022-08-16T21:16:34.653Z,7.53
2022-08-16T21:18:58.380Z,8.10
2022-08-16T21:21:22.764Z,8.15
2022-08-16T21:23:47.977Z,8.10
2022-08-16T21:26:13.327Z,8.23
2022-08-16T21:28:42.513Z,7.78
2022-08-16T21:31:07.409Z,8.73
2022-08-16T21:33:33.036Z,7.95
2022-08-16T21:35:56.857Z,8.60
2022-08-16T21:38:29.655Z,8.57
2022-08-16T21:40:54.242Z,8.43
2022-08-16T21:43:22.924Z,8.52
2022-08-16T21:45:48.400Z,8.40
2022-08-16T21:48:17.873Z,8.75
2022-08-16T21:50:58.376Z,8.50
2022-08-16T21:53:26.624Z,8.18
2022-08-16T21:55:56.004Z,8.38
2022-08-16T21:58:21.571Z,8.43
2022-08-16T22:00:45.589Z,8.98
2022-08-16T22:03:11.300Z,8.32
2022-08-16T22:05:36.148Z,9.10
2022-08-16T22:08:01.665Z,9.15
2022-08-16T22:11:06.843Z,9.32
2022-08-16T22:13:19.200Z,8.85
2022-08-16T22:15:45.748Z,8.65
2022-08-16T22:18:09.412Z,9.02
2022-08-16T22:20:33.215Z,8.38
2022-08-16T22:23:07.329Z,9.20
2022-08-16T22:25:31.140Z,8.70
2022-08-16T22:27:54.847Z,8.55
2022-08-16T22:30:18.801Z,9.10
2022-08-16T22:32:45.724Z,8.68
2022-08-16T22:35:14.144Z,9.15
2022-08-16T22:37:38.314Z,9.73
2022-08-16T22:40:22.250Z,9.55
2022-08-16T22:42:50.865Z,9.30
2022-08-16T22:45:16.420Z,9.65
2022-08-16T22:47:40.126Z,10.18
2022-08-16T22:50:06.091Z,9.63
2022-08-16T22:52:50.834Z,11.20
2022-08-16T22:55:13.675Z,9.80
2022-08-16T22:57:37.319Z,9.85
2022-08-16T23:00:01.068Z,10.32
2022-08-16T23:02:24.761Z,11.02
2022-08-16T23:04:48.565Z,9.90
2022-08-16T23:07:13.714Z,10.23
2022-08-16T23:09:37.540Z,9.68
2022-08-16T23:12:06.195Z,10.05
2022-08-16T23:14:30.027Z,10.40
2022-08-16T23:16:53.768Z,9.75
2022-08-16T23:19:18.616Z,9.18
2022-08-16T23:21:46.991Z,9.80
2022-08-16T23:24:15.528Z,10.13
2022-08-16T23:26:47.483Z,11.48
2022-08-16T23:29:22.215Z,9.90
2022-08-16T23:31:49.847Z,10.55
2022-08-16T23:34:13.767Z,10.15
2022-08-16T23:36:37.564Z,9.73
2022-08-16T23:39:01.248Z,10.60
2022-08-16T23:41:26.429Z,9.77
2022-08-16T23:43:50.176Z,10.73
2022-08-16T23:46:19.549Z,10.60
2022-08-16T23:49:45.124Z,10.65
2022-08-16T23:51:29.030Z,9.95
2022-08-16T23:53:55.686Z,10.43
2022-08-16T23:56:22.024Z,11.55
2022-08-16T23:58:49.390Z,11.13
